sensor_id;sensor_type;location;lat;lon;timestamp;P1;durP1;ratioP1;P2;durP2;ratioP2
4244;SDS011;2136;48.502;9.194;2023-07-29T00:00:04;1.13;;;1.13;;
4244;SDS011;2136;48.502;9.194;2023-07-29T00:02:33;3.03;;;1.83;;
4244;SDS011;2136;48.502;9.194;2023-07-29T00:05:00;2.40;;;2.10;;
4244;SDS011;2136;48.502;9.194;2023-07-29T00:07:27;2.90;;;1.70;;
4244;SDS011;2136;48.502;9.194;2023-07-29T00:09:54;2.03;;;1.93;;
4244;SDS011;2136;48.502;9.194;2023-07-29T00:12:21;1.70;;;1.60;;
4244;SDS011;2136;48.502;9.194;2023-07-29T00:14:48;2.23;;;1.60;;
4244;SDS011;2136;48.502;9.194;2023-07-29T00:17:15;2.23;;;1.97;;
4244;SDS011;2136;48.502;9.194;2023-07-29T00:19:43;2.30;;;1.70;;
4244;SDS011;2136;48.502;9.194;2023-07-29T00:22:10;3.20;;;1.80;;
4244;SDS011;2136;48.502;9.194;2023-07-29T00:24:37;2.77;;;1.80;;
4244;SDS011;2136;48.502;9.194;2023-07-29T00:27:05;1.50;;;1.33;;
4244;SDS011;2136;48.502;9.194;2023-07-29T00:29:32;3.00;;;2.00;;
4244;SDS011;2136;48.502;9.194;2023-07-29T00:31:59;2.07;;;1.90;;
4244;SDS011;2136;48.502;9.194;2023-07-29T00:34:26;9.93;;;2.10;;
4244;SDS011;2136;48.502;9.194;2023-07-29T00:36:54;2.13;;;1.70;;
4244;SDS011;2136;48.502;9.194;2023-07-29T00:39:20;2.27;;;1.97;;
4244;SDS011;2136;48.502;9.194;2023-07-29T00:41:48;2.40;;;2.20;;
4244;SDS011;2136;48.502;9.194;2023-07-29T00:44:16;4.13;;;3.10;;
4244;SDS011;2136;48.502;9.194;2023-07-29T00:46:43;5.77;;;3.77;;
4244;SDS011;2136;48.502;9.194;2023-07-29T00:49:13;5.47;;;4.53;;
4244;SDS011;2136;48.502;9.194;2023-07-29T00:51:40;9.17;;;3.70;;
4244;SDS011;2136;48.502;9.194;2023-07-29T00:54:08;4.07;;;3.40;;
4244;SDS011;2136;48.502;9.194;2023-07-29T00:56:35;6.37;;;3.67;;
4244;SDS011;2136;48.502;9.194;2023-07-29T00:59:02;11.40;;;3.13;;
4244;SDS011;2136;48.502;9.194;2023-07-29T01:01:29;3.70;;;3.33;;
4244;SDS011;2136;48.502;9.194;2023-07-29T01:03:56;14.10;;;3.47;;
4244;SDS011;2136;48.502;9.194;2023-07-29T01:06:26;5.23;;;3.93;;
4244;SDS011;2136;48.502;9.194;2023-07-29T01:08:59;3.83;;;3.43;;
4244;SDS011;2136;48.502;9.194;2023-07-29T01:11:33;9.50;;;3.87;;
4244;SDS011;2136;48.502;9.194;2023-07-29T01:14:09;4.60;;;3.40;;
4244;SDS011;2136;48.502;9.194;2023-07-29T01:16:49;4.33;;;3.90;;
4244;SDS011;2136;48.502;9.194;2023-07-29T01:19:22;13.13;;;4.20;;
4244;SDS011;2136;48.502;9.194;2023-07-29T01:22:00;5.20;;;4.07;;
4244;SDS011;2136;48.502;9.194;2023-07-29T01:24:31;4.47;;;4.07;;
4244;SDS011;2136;48.502;9.194;2023-07-29T01:26:58;5.07;;;4.00;;
4244;SDS011;2136;48.502;9.194;2023-07-29T01:29:26;2.80;;;2.63;;
4244;SDS011;2136;48.502;9.194;2023-07-29T01:31:54;3.57;;;3.27;;
4244;SDS011;2136;48.502;9.194;2023-07-29T01:34:28;6.23;;;3.50;;
4244;SDS011;2136;48.502;9.194;2023-07-29T01:37:01;6.73;;;3.33;;
4244;SDS011;2136;48.502;9.194;2023-07-29T01:39:33;4.10;;;2.93;;
4244;SDS011;2136;48.502;9.194;2023-07-29T01:42:03;2.50;;;2.30;;
4244;SDS011;2136;48.502;9.194;2023-07-29T01:44:30;2.93;;;2.40;;
4244;SDS011;2136;48.502;9.194;2023-07-29T01:46:58;10.43;;;2.87;;
4244;SDS011;2136;48.502;9.194;2023-07-29T01:49:25;3.50;;;3.00;;
4244;SDS011;2136;48.502;9.194;2023-07-29T01:51:52;8.70;;;3.03;;
4244;SDS011;2136;48.502;9.194;2023-07-29T01:54:19;5.20;;;3.20;;
4244;SDS011;2136;48.502;9.194;2023-07-29T01:56:47;4.77;;;2.60;;
4244;SDS011;2136;48.502;9.194;2023-07-29T01:59:16;3.20;;;2.20;;
4244;SDS011;2136;48.502;9.194;2023-07-29T02:01:42;3.73;;;2.93;;
4244;SDS011;2136;48.502;9.194;2023-07-29T02:04:11;3.43;;;2.40;;
4244;SDS011;2136;48.502;9.194;2023-07-29T02:06:38;4.70;;;3.47;;
4244;SDS011;2136;48.502;9.194;2023-07-29T02:09:05;5.40;;;2.23;;
4244;SDS011;2136;48.502;9.194;2023-07-29T02:11:32;5.27;;;2.63;;
4244;SDS011;2136;48.502;9.194;2023-07-29T02:14:00;3.17;;;2.33;;
4244;SDS011;2136;48.502;9.194;2023-07-29T02:16:27;3.10;;;2.57;;
4244;SDS011;2136;48.502;9.194;2023-07-29T02:18:54;3.07;;;2.77;;
4244;SDS011;2136;48.502;9.194;2023-07-29T02:21:20;5.43;;;2.97;;
4244;SDS011;2136;48.502;9.194;2023-07-29T02:23:47;3.17;;;2.60;;
4244;SDS011;2136;48.502;9.194;2023-07-29T02:26:14;7.13;;;3.83;;
4244;SDS011;2136;48.502;9.194;2023-07-29T02:28:42;5.13;;;3.07;;
4244;SDS011;2136;48.502;9.194;2023-07-29T02:31:12;6.57;;;2.43;;
4244;SDS011;2136;48.502;9.194;2023-07-29T02:33:41;6.67;;;2.50;;
4244;SDS011;2136;48.502;9.194;2023-07-29T02:36:07;5.13;;;2.63;;
4244;SDS011;2136;48.502;9.194;2023-07-29T02:38:34;2.57;;;2.37;;
4244;SDS011;2136;48.502;9.194;2023-07-29T02:41:01;3.23;;;2.30;;
4244;SDS011;2136;48.502;9.194;2023-07-29T02:43:28;2.80;;;2.47;;
4244;SDS011;2136;48.502;9.194;2023-07-29T02:45:55;2.60;;;2.10;;
4244;SDS011;2136;48.502;9.194;2023-07-29T02:48:23;5.57;;;2.00;;
4244;SDS011;2136;48.502;9.194;2023-07-29T02:50:50;4.30;;;2.80;;
4244;SDS011;2136;48.502;9.194;2023-07-29T02:53:17;2.50;;;2.37;;
4244;SDS011;2136;48.502;9.194;2023-07-29T02:55:44;3.90;;;2.50;;
4244;SDS011;2136;48.502;9.194;2023-07-29T02:58:11;5.83;;;2.40;;
4244;SDS011;2136;48.502;9.194;2023-07-29T03:00:37;3.03;;;2.80;;
4244;SDS011;2136;48.502;9.194;2023-07-29T03:03:06;2.40;;;2.20;;
4244;SDS011;2136;48.502;9.194;2023-07-29T03:05:34;3.57;;;2.47;;
4244;SDS011;2136;48.502;9.194;2023-07-29T03:08:03;3.97;;;3.63;;
4244;SDS011;2136;48.502;9.194;2023-07-29T03:10:30;4.50;;;2.80;;
4244;SDS011;2136;48.502;9.194;2023-07-29T03:12:57;4.20;;;2.40;;
4244;SDS011;2136;48.502;9.194;2023-07-29T03:15:24;4.30;;;2.27;;
4244;SDS011;2136;48.502;9.194;2023-07-29T03:17:51;2.10;;;2.00;;
4244;SDS011;2136;48.502;9.194;2023-07-29T03:20:18;5.23;;;2.63;;
4244;SDS011;2136;48.502;9.194;2023-07-29T03:22:47;6.13;;;2.80;;
4244;SDS011;2136;48.502;9.194;2023-07-29T03:25:14;5.27;;;3.23;;
4244;SDS011;2136;48.502;9.194;2023-07-29T03:27:40;3.53;;;3.00;;
4244;SDS011;2136;48.502;9.194;2023-07-29T03:30:07;3.00;;;2.67;;
4244;SDS011;2136;48.502;9.194;2023-07-29T03:32:35;2.60;;;2.40;;
4244;SDS011;2136;48.502;9.194;2023-07-29T03:35:01;3.77;;;2.53;;
4244;SDS011;2136;48.502;9.194;2023-07-29T03:37:29;1.93;;;1.83;;
4244;SDS011;2136;48.502;9.194;2023-07-29T03:39:57;2.73;;;2.53;;
4244;SDS011;2136;48.502;9.194;2023-07-29T03:42:24;3.57;;;2.77;;
4244;SDS011;2136;48.502;9.194;2023-07-29T03:44:51;2.93;;;2.50;;
4244;SDS011;2136;48.502;9.194;2023-07-29T03:47:18;2.40;;;2.20;;
4244;SDS011;2136;48.502;9.194;2023-07-29T03:49:44;3.50;;;2.80;;
4244;SDS011;2136;48.502;9.194;2023-07-29T03:52:11;3.77;;;2.90;;
4244;SDS011;2136;48.502;9.194;2023-07-29T03:54:38;4.70;;;2.67;;
4244;SDS011;2136;48.502;9.194;2023-07-29T03:57:06;5.70;;;3.10;;
4244;SDS011;2136;48.502;9.194;2023-07-29T03:59:33;5.23;;;2.90;;
4244;SDS011;2136;48.502;9.194;2023-07-29T04:02:00;4.10;;;2.40;;
4244;SDS011;2136;48.502;9.194;2023-07-29T04:04:27;2.50;;;2.30;;
4244;SDS011;2136;48.502;9.194;2023-07-29T04:06:54;2.40;;;2.30;;
4244;SDS011;2136;48.502;9.194;2023-07-29T04:09:21;5.53;;;2.40;;
4244;SDS011;2136;48.502;9.194;2023-07-29T04:11:48;4.53;;;2.40;;
4244;SDS011;2136;48.502;9.194;2023-07-29T04:14:16;3.07;;;2.87;;
4244;SDS011;2136;48.502;9.194;2023-07-29T04:16:43;2.47;;;2.37;;
4244;SDS011;2136;48.502;9.194;2023-07-29T04:19:10;2.73;;;2.53;;
4244;SDS011;2136;48.502;9.194;2023-07-29T04:21:37;5.70;;;2.80;;
4244;SDS011;2136;48.502;9.194;2023-07-29T04:24:04;5.10;;;2.47;;
4244;SDS011;2136;48.502;9.194;2023-07-29T04:26:30;2.60;;;2.40;;
4244;SDS011;2136;48.502;9.194;2023-07-29T04:28:57;3.20;;;2.50;;
4244;SDS011;2136;48.502;9.194;2023-07-29T04:31:25;2.93;;;2.63;;
4244;SDS011;2136;48.502;9.194;2023-07-29T04:33:52;3.57;;;2.60;;
4244;SDS011;2136;48.502;9.194;2023-07-29T04:36:19;4.63;;;2.47;;
4244;SDS011;2136;48.502;9.194;2023-07-29T04:38:46;3.60;;;2.67;;
4244;SDS011;2136;48.502;9.194;2023-07-29T04:41:13;3.03;;;2.33;;
4244;SDS011;2136;48.502;9.194;2023-07-29T04:43:39;5.50;;;2.37;;
4244;SDS011;2136;48.502;9.194;2023-07-29T04:46:06;7.43;;;2.60;;
4244;SDS011;2136;48.502;9.194;2023-07-29T04:48:35;2.70;;;2.37;;
4244;SDS011;2136;48.502;9.194;2023-07-29T04:51:02;2.63;;;2.43;;
4244;SDS011;2136;48.502;9.194;2023-07-29T04:53:29;2.40;;;2.20;;
4244;SDS011;2136;48.502;9.194;2023-07-29T04:55:55;2.60;;;2.40;;
4244;SDS011;2136;48.502;9.194;2023-07-29T04:58:22;3.80;;;2.30;;
4244;SDS011;2136;48.502;9.194;2023-07-29T05:00:49;3.20;;;2.40;;
4244;SDS011;2136;48.502;9.194;2023-07-29T05:03:16;2.73;;;2.50;;
4244;SDS011;2136;48.502;9.194;2023-07-29T05:05:44;1.83;;;1.73;;
4244;SDS011;2136;48.502;9.194;2023-07-29T05:08:11;3.10;;;2.20;;
4244;SDS011;2136;48.502;9.194;2023-07-29T05:10:37;2.50;;;2.30;;
4244;SDS011;2136;48.502;9.194;2023-07-29T05:13:04;1.80;;;1.70;;
4244;SDS011;2136;48.502;9.194;2023-07-29T05:15:31;7.50;;;2.17;;
4244;SDS011;2136;48.502;9.194;2023-07-29T05:17:58;9.60;;;2.17;;
4244;SDS011;2136;48.502;9.194;2023-07-29T05:20:25;2.30;;;2.10;;
4244;SDS011;2136;48.502;9.194;2023-07-29T05:22:53;2.70;;;1.97;;
4244;SDS011;2136;48.502;9.194;2023-07-29T05:25:20;1.87;;;1.77;;
4244;SDS011;2136;48.502;9.194;2023-07-29T05:27:47;2.13;;;1.93;;
4244;SDS011;2136;48.502;9.194;2023-07-29T05:30:13;3.37;;;2.00;;
4244;SDS011;2136;48.502;9.194;2023-07-29T05:32:40;2.50;;;1.60;;
4244;SDS011;2136;48.502;9.194;2023-07-29T05:35:07;2.30;;;2.20;;
4244;SDS011;2136;48.502;9.194;2023-07-29T05:37:35;1.93;;;1.70;;
4244;SDS011;2136;48.502;9.194;2023-07-29T05:40:06;2.73;;;1.73;;
4244;SDS011;2136;48.502;9.194;2023-07-29T05:42:33;1.77;;;1.67;;
4244;SDS011;2136;48.502;9.194;2023-07-29T05:45:01;3.80;;;2.07;;
4244;SDS011;2136;48.502;9.194;2023-07-29T05:47:28;2.00;;;1.90;;
4244;SDS011;2136;48.502;9.194;2023-07-29T05:49:55;5.50;;;1.90;;
4244;SDS011;2136;48.502;9.194;2023-07-29T05:52:21;2.20;;;2.00;;
4244;SDS011;2136;48.502;9.194;2023-07-29T05:54:48;2.20;;;2.00;;
4244;SDS011;2136;48.502;9.194;2023-07-29T05:57:16;2.07;;;1.63;;
4244;SDS011;2136;48.502;9.194;2023-07-29T05:59:43;1.90;;;1.80;;
4244;SDS011;2136;48.502;9.194;2023-07-29T06:02:10;3.20;;;1.80;;
4244;SDS011;2136;48.502;9.194;2023-07-29T06:04:37;1.93;;;1.83;;
4244;SDS011;2136;48.502;9.194;2023-07-29T06:07:05;1.70;;;1.60;;
4244;SDS011;2136;48.502;9.194;2023-07-29T06:09:32;1.33;;;1.33;;
4244;SDS011;2136;48.502;9.194;2023-07-29T06:11:59;3.00;;;1.73;;
4244;SDS011;2136;48.502;9.194;2023-07-29T06:14:27;2.13;;;1.70;;
4244;SDS011;2136;48.502;9.194;2023-07-29T06:16:54;1.87;;;1.77;;
4244;SDS011;2136;48.502;9.194;2023-07-29T06:19:21;2.20;;;2.10;;
4244;SDS011;2136;48.502;9.194;2023-07-29T06:21:48;2.70;;;1.93;;
4244;SDS011;2136;48.502;9.194;2023-07-29T06:24:15;2.43;;;2.23;;
4244;SDS011;2136;48.502;9.194;2023-07-29T06:26:41;4.83;;;2.10;;
4244;SDS011;2136;48.502;9.194;2023-07-29T06:29:08;2.30;;;1.97;;
4244;SDS011;2136;48.502;9.194;2023-07-29T06:31:36;2.60;;;2.40;;
4244;SDS011;2136;48.502;9.194;2023-07-29T06:34:03;2.40;;;2.27;;
4244;SDS011;2136;48.502;9.194;2023-07-29T06:36:30;1.80;;;1.70;;
4244;SDS011;2136;48.502;9.194;2023-07-29T06:38:57;1.87;;;1.77;;
4244;SDS011;2136;48.502;9.194;2023-07-29T06:41:23;2.03;;;1.93;;
4244;SDS011;2136;48.502;9.194;2023-07-29T06:43:50;1.90;;;1.80;;
4244;SDS011;2136;48.502;9.194;2023-07-29T06:46:17;5.03;;;2.00;;
4244;SDS011;2136;48.502;9.194;2023-07-29T06:48:45;2.07;;;1.83;;
4244;SDS011;2136;48.502;9.194;2023-07-29T06:51:12;2.17;;;1.90;;
4244;SDS011;2136;48.502;9.194;2023-07-29T06:53:39;4.40;;;1.67;;
4244;SDS011;2136;48.502;9.194;2023-07-29T06:56:06;2.60;;;2.10;;
4244;SDS011;2136;48.502;9.194;2023-07-29T06:58:33;9.20;;;2.73;;
4244;SDS011;2136;48.502;9.194;2023-07-29T07:01:00;4.13;;;2.70;;
4244;SDS011;2136;48.502;9.194;2023-07-29T07:03:28;2.50;;;2.33;;
4244;SDS011;2136;48.502;9.194;2023-07-29T07:05:56;9.17;;;2.90;;
4244;SDS011;2136;48.502;9.194;2023-07-29T07:08:23;2.50;;;2.30;;
4244;SDS011;2136;48.502;9.194;2023-07-29T07:10:50;2.50;;;2.23;;
4244;SDS011;2136;48.502;9.194;2023-07-29T07:13:17;4.77;;;1.67;;
4244;SDS011;2136;48.502;9.194;2023-07-29T07:15:43;2.37;;;2.07;;
4244;SDS011;2136;48.502;9.194;2023-07-29T07:18:10;4.17;;;2.43;;
4244;SDS011;2136;48.502;9.194;2023-07-29T07:20:37;2.43;;;2.30;;
4244;SDS011;2136;48.502;9.194;2023-07-29T07:23:05;3.30;;;2.63;;
4244;SDS011;2136;48.502;9.194;2023-07-29T07:25:35;3.33;;;2.93;;
4244;SDS011;2136;48.502;9.194;2023-07-29T07:28:02;4.50;;;2.63;;
4244;SDS011;2136;48.502;9.194;2023-07-29T07:30:29;3.57;;;2.60;;
4244;SDS011;2136;48.502;9.194;2023-07-29T07:32:56;3.37;;;2.67;;
4244;SDS011;2136;48.502;9.194;2023-07-29T07:35:23;4.17;;;2.93;;
4244;SDS011;2136;48.502;9.194;2023-07-29T07:37:50;2.87;;;2.33;;
4244;SDS011;2136;48.502;9.194;2023-07-29T07:40:18;2.70;;;2.50;;
4244;SDS011;2136;48.502;9.194;2023-07-29T07:42:45;2.10;;;2.00;;
4244;SDS011;2136;48.502;9.194;2023-07-29T07:45:11;5.03;;;2.53;;
4244;SDS011;2136;48.502;9.194;2023-07-29T07:47:38;3.43;;;2.67;;
4244;SDS011;2136;48.502;9.194;2023-07-29T07:50:05;5.50;;;2.70;;
4244;SDS011;2136;48.502;9.194;2023-07-29T07:52:32;3.67;;;3.07;;
4244;SDS011;2136;48.502;9.194;2023-07-29T07:54:59;4.40;;;3.10;;
4244;SDS011;2136;48.502;9.194;2023-07-29T07:57:27;4.30;;;2.80;;
4244;SDS011;2136;48.502;9.194;2023-07-29T07:59:54;3.00;;;2.70;;
4244;SDS011;2136;48.502;9.194;2023-07-29T08:02:21;3.47;;;2.30;;
4244;SDS011;2136;48.502;9.194;2023-07-29T08:04:48;4.73;;;2.60;;
4244;SDS011;2136;48.502;9.194;2023-07-29T08:07:14;2.43;;;2.23;;
4244;SDS011;2136;48.502;9.194;2023-07-29T08:09:41;3.43;;;3.00;;
4244;SDS011;2136;48.502;9.194;2023-07-29T08:12:08;2.77;;;1.97;;
4244;SDS011;2136;48.502;9.194;2023-07-29T08:14:36;4.50;;;2.17;;
4244;SDS011;2136;48.502;9.194;2023-07-29T08:17:03;2.10;;;2.00;;
4244;SDS011;2136;48.502;9.194;2023-07-29T08:19:30;2.30;;;1.90;;
4244;SDS011;2136;48.502;9.194;2023-07-29T08:21:57;2.30;;;2.20;;
4244;SDS011;2136;48.502;9.194;2023-07-29T08:24:24;4.40;;;2.27;;
4244;SDS011;2136;48.502;9.194;2023-07-29T08:26:51;2.20;;;1.80;;
4244;SDS011;2136;48.502;9.194;2023-07-29T08:29:17;2.17;;;2.07;;
4244;SDS011;2136;48.502;9.194;2023-07-29T08:31:45;4.30;;;2.30;;
4244;SDS011;2136;48.502;9.194;2023-07-29T08:34:12;2.20;;;2.00;;
4244;SDS011;2136;48.502;9.194;2023-07-29T08:36:39;2.17;;;1.80;;
4244;SDS011;2136;48.502;9.194;2023-07-29T08:39:06;6.60;;;2.30;;
4244;SDS011;2136;48.502;9.194;2023-07-29T08:41:35;3.00;;;2.17;;
4244;SDS011;2136;48.502;9.194;2023-07-29T08:44:09;2.73;;;1.70;;
4244;SDS011;2136;48.502;9.194;2023-07-29T08:46:42;2.13;;;1.93;;
4244;SDS011;2136;48.502;9.194;2023-07-29T08:49:12;6.63;;;2.23;;
4244;SDS011;2136;48.502;9.194;2023-07-29T08:51:39;2.40;;;2.00;;
4244;SDS011;2136;48.502;9.194;2023-07-29T08:54:09;1.97;;;1.87;;
4244;SDS011;2136;48.502;9.194;2023-07-29T08:56:36;3.30;;;2.50;;
4244;SDS011;2136;48.502;9.194;2023-07-29T08:59:04;2.87;;;1.90;;
4244;SDS011;2136;48.502;9.194;2023-07-29T09:01:31;2.70;;;2.50;;
4244;SDS011;2136;48.502;9.194;2023-07-29T09:03:58;3.00;;;2.70;;
4244;SDS011;2136;48.502;9.194;2023-07-29T09:06:26;3.17;;;2.77;;
4244;SDS011;2136;48.502;9.194;2023-07-29T09:08:54;2.73;;;2.53;;
4244;SDS011;2136;48.502;9.194;2023-07-29T09:11:22;5.40;;;2.60;;
4244;SDS011;2136;48.502;9.194;2023-07-29T09:13:49;2.53;;;2.33;;
4244;SDS011;2136;48.502;9.194;2023-07-29T09:16:16;2.57;;;2.10;;
4244;SDS011;2136;48.502;9.194;2023-07-29T09:18:43;2.93;;;2.63;;
4244;SDS011;2136;48.502;9.194;2023-07-29T09:21:09;2.47;;;2.37;;
4244;SDS011;2136;48.502;9.194;2023-07-29T09:23:41;2.67;;;2.17;;
4244;SDS011;2136;48.502;9.194;2023-07-29T09:26:09;2.17;;;1.97;;
4244;SDS011;2136;48.502;9.194;2023-07-29T09:28:37;3.27;;;2.57;;
4244;SDS011;2136;48.502;9.194;2023-07-29T09:31:05;6.67;;;2.30;;
4244;SDS011;2136;48.502;9.194;2023-07-29T09:33:33;2.50;;;2.30;;
4244;SDS011;2136;48.502;9.194;2023-07-29T09:36:01;2.23;;;2.10;;
4244;SDS011;2136;48.502;9.194;2023-07-29T09:38:29;2.60;;;2.40;;
4244;SDS011;2136;48.502;9.194;2023-07-29T09:40:57;2.30;;;1.97;;
4244;SDS011;2136;48.502;9.194;2023-07-29T09:43:29;5.57;;;2.27;;
4244;SDS011;2136;48.502;9.194;2023-07-29T09:45:59;3.20;;;2.63;;
4244;SDS011;2136;48.502;9.194;2023-07-29T09:48:27;2.60;;;2.40;;
4244;SDS011;2136;48.502;9.194;2023-07-29T09:50:54;2.40;;;2.20;;
4244;SDS011;2136;48.502;9.194;2023-07-29T09:53:21;2.43;;;2.23;;
4244;SDS011;2136;48.502;9.194;2023-07-29T09:55:48;2.17;;;2.00;;
4244;SDS011;2136;48.502;9.194;2023-07-29T09:58:17;3.87;;;2.30;;
4244;SDS011;2136;48.502;9.194;2023-07-29T10:00:51;2.30;;;2.00;;
4244;SDS011;2136;48.502;9.194;2023-07-29T10:03:18;2.13;;;2.03;;
4244;SDS011;2136;48.502;9.194;2023-07-29T10:05:46;2.70;;;2.50;;
4244;SDS011;2136;48.502;9.194;2023-07-29T10:08:13;2.43;;;2.23;;
4244;SDS011;2136;48.502;9.194;2023-07-29T10:10:41;2.27;;;2.13;;
4244;SDS011;2136;48.502;9.194;2023-07-29T10:13:08;4.47;;;3.00;;
4244;SDS011;2136;48.502;9.194;2023-07-29T10:15:37;3.20;;;2.50;;
4244;SDS011;2136;48.502;9.194;2023-07-29T10:18:04;2.57;;;2.37;;
4244;SDS011;2136;48.502;9.194;2023-07-29T10:20:31;3.20;;;2.13;;
4244;SDS011;2136;48.502;9.194;2023-07-29T10:23:00;10.60;;;2.40;;
4244;SDS011;2136;48.502;9.194;2023-07-29T10:25:31;3.57;;;2.40;;
4244;SDS011;2136;48.502;9.194;2023-07-29T10:28:07;2.20;;;2.10;;
4244;SDS011;2136;48.502;9.194;2023-07-29T10:30:35;1.60;;;1.50;;
4244;SDS011;2136;48.502;9.194;2023-07-29T10:33:04;1.97;;;1.60;;
4244;SDS011;2136;48.502;9.194;2023-07-29T10:35:32;2.10;;;2.00;;
4244;SDS011;2136;48.502;9.194;2023-07-29T10:37:59;2.20;;;1.60;;
4244;SDS011;2136;48.502;9.194;2023-07-29T10:40:31;2.03;;;1.83;;
4244;SDS011;2136;48.502;9.194;2023-07-29T10:43:11;2.13;;;1.93;;
4244;SDS011;2136;48.502;9.194;2023-07-29T10:45:41;5.90;;;2.20;;
4244;SDS011;2136;48.502;9.194;2023-07-29T10:48:10;4.43;;;2.30;;
4244;SDS011;2136;48.502;9.194;2023-07-29T10:50:37;2.40;;;2.17;;
4244;SDS011;2136;48.502;9.194;2023-07-29T10:53:04;1.90;;;1.80;;
4244;SDS011;2136;48.502;9.194;2023-07-29T10:55:32;2.30;;;1.90;;
4244;SDS011;2136;48.502;9.194;2023-07-29T10:58:05;1.83;;;1.73;;
4244;SDS011;2136;48.502;9.194;2023-07-29T11:00:38;1.80;;;1.63;;
4244;SDS011;2136;48.502;9.194;2023-07-29T11:03:08;4.80;;;2.13;;
4244;SDS011;2136;48.502;9.194;2023-07-29T11:05:42;1.80;;;1.70;;
4244;SDS011;2136;48.502;9.194;2023-07-29T11:08:16;2.27;;;2.00;;
4244;SDS011;2136;48.502;9.194;2023-07-29T11:10:44;2.20;;;2.10;;
4244;SDS011;2136;48.502;9.194;2023-07-29T11:13:23;3.03;;;1.93;;
4244;SDS011;2136;48.502;9.194;2023-07-29T11:15:52;1.40;;;1.30;;
4244;SDS011;2136;48.502;9.194;2023-07-29T11:18:22;2.30;;;2.10;;
4244;SDS011;2136;48.502;9.194;2023-07-29T11:20:53;7.30;;;2.07;;
4244;SDS011;2136;48.502;9.194;2023-07-29T11:23:20;2.87;;;2.07;;
4244;SDS011;2136;48.502;9.194;2023-07-29T11:25:54;2.73;;;1.60;;
4244;SDS011;2136;48.502;9.194;2023-07-29T11:28:21;2.30;;;2.10;;
4244;SDS011;2136;48.502;9.194;2023-07-29T11:30:49;2.70;;;1.90;;
4244;SDS011;2136;48.502;9.194;2023-07-29T11:33:17;2.10;;;2.00;;
4244;SDS011;2136;48.502;9.194;2023-07-29T11:35:47;5.30;;;2.53;;
4244;SDS011;2136;48.502;9.194;2023-07-29T11:38:17;1.73;;;1.63;;
4244;SDS011;2136;48.502;9.194;2023-07-29T11:40:53;2.03;;;1.87;;
4244;SDS011;2136;48.502;9.194;2023-07-29T11:43:21;2.00;;;1.90;;
4244;SDS011;2136;48.502;9.194;2023-07-29T11:45:47;1.80;;;1.70;;
4244;SDS011;2136;48.502;9.194;2023-07-29T11:48:14;1.93;;;1.83;;
4244;SDS011;2136;48.502;9.194;2023-07-29T11:50:41;2.10;;;1.87;;
4244;SDS011;2136;48.502;9.194;2023-07-29T11:53:10;1.60;;;1.50;;
4244;SDS011;2136;48.502;9.194;2023-07-29T11:55:37;1.90;;;1.80;;
4244;SDS011;2136;48.502;9.194;2023-07-29T11:58:04;1.70;;;1.60;;
4244;SDS011;2136;48.502;9.194;2023-07-29T12:00:31;1.63;;;1.53;;
4244;SDS011;2136;48.502;9.194;2023-07-29T12:02:58;1.57;;;1.33;;
4244;SDS011;2136;48.502;9.194;2023-07-29T12:05:25;3.13;;;1.80;;
4244;SDS011;2136;48.502;9.194;2023-07-29T12:07:53;2.10;;;2.00;;
4244;SDS011;2136;48.502;9.194;2023-07-29T12:10:21;2.03;;;1.93;;
4244;SDS011;2136;48.502;9.194;2023-07-29T12:12:49;2.27;;;1.80;;
4244;SDS011;2136;48.502;9.194;2023-07-29T12:15:23;2.37;;;1.73;;
4244;SDS011;2136;48.502;9.194;2023-07-29T12:17:52;1.53;;;1.43;;
4244;SDS011;2136;48.502;9.194;2023-07-29T12:20:21;3.30;;;1.70;;
4244;SDS011;2136;48.502;9.194;2023-07-29T12:22:51;1.77;;;1.67;;
4244;SDS011;2136;48.502;9.194;2023-07-29T12:25:19;1.83;;;1.40;;
4244;SDS011;2136;48.502;9.194;2023-07-29T12:27:47;2.67;;;2.13;;
4244;SDS011;2136;48.502;9.194;2023-07-29T12:30:14;2.00;;;1.90;;
4244;SDS011;2136;48.502;9.194;2023-07-29T12:32:45;2.00;;;1.70;;
4244;SDS011;2136;48.502;9.194;2023-07-29T12:35:12;2.80;;;2.20;;
4244;SDS011;2136;48.502;9.194;2023-07-29T12:37:40;1.60;;;1.50;;
4244;SDS011;2136;48.502;9.194;2023-07-29T12:40:09;2.20;;;2.00;;
4244;SDS011;2136;48.502;9.194;2023-07-29T12:42:52;4.40;;;2.30;;
4244;SDS011;2136;48.502;9.194;2023-07-29T12:45:20;3.40;;;2.37;;
4244;SDS011;2136;48.502;9.194;2023-07-29T12:47:52;2.10;;;2.00;;
4244;SDS011;2136;48.502;9.194;2023-07-29T12:50:19;2.03;;;1.93;;
4244;SDS011;2136;48.502;9.194;2023-07-29T12:52:46;4.83;;;2.27;;
4244;SDS011;2136;48.502;9.194;2023-07-29T12:55:12;2.00;;;1.70;;
4244;SDS011;2136;48.502;9.194;2023-07-29T12:57:41;2.33;;;2.13;;
4244;SDS011;2136;48.502;9.194;2023-07-29T13:00:10;1.97;;;1.83;;
4244;SDS011;2136;48.502;9.194;2023-07-29T13:02:38;2.67;;;2.40;;
4244;SDS011;2136;48.502;9.194;2023-07-29T13:05:05;1.93;;;1.83;;
4244;SDS011;2136;48.502;9.194;2023-07-29T13:07:36;5.97;;;2.30;;
4244;SDS011;2136;48.502;9.194;2023-07-29T13:10:04;3.43;;;2.63;;
4244;SDS011;2136;48.502;9.194;2023-07-29T13:12:31;2.00;;;1.90;;
4244;SDS011;2136;48.502;9.194;2023-07-29T13:14:58;2.30;;;2.20;;
4244;SDS011;2136;48.502;9.194;2023-07-29T13:17:26;2.63;;;2.40;;
4244;SDS011;2136;48.502;9.194;2023-07-29T13:19:53;1.70;;;1.60;;
4244;SDS011;2136;48.502;9.194;2023-07-29T13:22:20;2.60;;;2.10;;
4244;SDS011;2136;48.502;9.194;2023-07-29T13:24:47;4.07;;;2.57;;
4244;SDS011;2136;48.502;9.194;2023-07-29T13:27:14;3.50;;;2.03;;
4244;SDS011;2136;48.502;9.194;2023-07-29T13:29:41;2.73;;;2.20;;
4244;SDS011;2136;48.502;9.194;2023-07-29T13:32:08;2.57;;;2.37;;
4244;SDS011;2136;48.502;9.194;2023-07-29T13:34:37;1.93;;;1.83;;
4244;SDS011;2136;48.502;9.194;2023-07-29T13:37:05;2.00;;;1.80;;
4244;SDS011;2136;48.502;9.194;2023-07-29T13:39:32;2.17;;;1.70;;
4244;SDS011;2136;48.502;9.194;2023-07-29T13:41:59;1.80;;;1.70;;
4244;SDS011;2136;48.502;9.194;2023-07-29T13:44:25;2.00;;;1.90;;
4244;SDS011;2136;48.502;9.194;2023-07-29T13:46:52;3.47;;;2.10;;
4244;SDS011;2136;48.502;9.194;2023-07-29T13:49:19;2.10;;;2.00;;
4244;SDS011;2136;48.502;9.194;2023-07-29T13:51:47;3.90;;;2.37;;
4244;SDS011;2136;48.502;9.194;2023-07-29T13:54:14;5.67;;;2.27;;
4244;SDS011;2136;48.502;9.194;2023-07-29T13:56:41;2.60;;;2.40;;
4244;SDS011;2136;48.502;9.194;2023-07-29T13:59:08;2.67;;;2.47;;
4244;SDS011;2136;48.502;9.194;2023-07-29T14:01:37;2.33;;;1.93;;
4244;SDS011;2136;48.502;9.194;2023-07-29T14:04:04;2.10;;;2.00;;
4244;SDS011;2136;48.502;9.194;2023-07-29T14:06:32;2.17;;;2.07;;
4244;SDS011;2136;48.502;9.194;2023-07-29T14:09:00;2.13;;;2.03;;
4244;SDS011;2136;48.502;9.194;2023-07-29T14:11:27;2.00;;;1.90;;
4244;SDS011;2136;48.502;9.194;2023-07-29T14:13:54;2.47;;;2.10;;
4244;SDS011;2136;48.502;9.194;2023-07-29T14:16:21;2.53;;;2.33;;
4244;SDS011;2136;48.502;9.194;2023-07-29T14:18:48;5.30;;;2.63;;
4244;SDS011;2136;48.502;9.194;2023-07-29T14:21:15;3.27;;;2.30;;
4244;SDS011;2136;48.502;9.194;2023-07-29T14:23:41;3.10;;;2.23;;
4244;SDS011;2136;48.502;9.194;2023-07-29T14:26:10;2.10;;;2.00;;
4244;SDS011;2136;48.502;9.194;2023-07-29T14:28:36;2.47;;;2.23;;
4244;SDS011;2136;48.502;9.194;2023-07-29T14:31:03;2.67;;;2.47;;
4244;SDS011;2136;48.502;9.194;2023-07-29T14:33:30;2.07;;;1.97;;
4244;SDS011;2136;48.502;9.194;2023-07-29T14:35:57;1.90;;;1.80;;
4244;SDS011;2136;48.502;9.194;2023-07-29T14:38:24;2.10;;;1.90;;
4244;SDS011;2136;48.502;9.194;2023-07-29T14:40:51;2.10;;;2.00;;
4244;SDS011;2136;48.502;9.194;2023-07-29T14:43:21;2.73;;;2.33;;
4244;SDS011;2136;48.502;9.194;2023-07-29T14:45:47;1.70;;;1.60;;
4244;SDS011;2136;48.502;9.194;2023-07-29T14:48:14;2.83;;;1.80;;
4244;SDS011;2136;48.502;9.194;2023-07-29T14:50:41;3.20;;;2.10;;
4244;SDS011;2136;48.502;9.194;2023-07-29T14:53:08;2.23;;;2.03;;
4244;SDS011;2136;48.502;9.194;2023-07-29T14:55:36;2.63;;;2.10;;
4244;SDS011;2136;48.502;9.194;2023-07-29T14:58:03;2.83;;;1.83;;
4244;SDS011;2136;48.502;9.194;2023-07-29T15:00:31;5.77;;;2.00;;
4244;SDS011;2136;48.502;9.194;2023-07-29T15:02:58;2.00;;;1.90;;
4244;SDS011;2136;48.502;9.194;2023-07-29T15:05:25;3.90;;;2.13;;
4244;SDS011;2136;48.502;9.194;2023-07-29T15:07:52;1.97;;;1.87;;
4244;SDS011;2136;48.502;9.194;2023-07-29T15:10:19;2.37;;;2.13;;
4244;SDS011;2136;48.502;9.194;2023-07-29T15:12:46;2.83;;;2.10;;
4244;SDS011;2136;48.502;9.194;2023-07-29T15:15:13;2.83;;;2.30;;
4244;SDS011;2136;48.502;9.194;2023-07-29T15:17:41;2.43;;;2.00;;